createdAt,value
2023-03-22T00:01:17.117Z,10.25
2023-03-22T00:03:44.311Z,10.10
2023-03-22T00:06:11.513Z,9.10
2023-03-22T00:08:39.059Z,7.47
2023-03-22T00:11:06.461Z,8.27
2023-03-22T00:13:35.726Z,10.65
2023-03-22T00:16:05.909Z,8.07
2023-03-22T00:18:32.852Z,9.55
2023-03-22T00:21:00.632Z,8.77
2023-03-22T00:23:28.715Z,7.38
2023-03-22T00:25:56.215Z,7.18
2023-03-22T00:28:23.140Z,6.97
2023-03-22T00:30:55.248Z,6.32
2023-03-22T00:33:22.403Z,6.93
2023-03-22T00:35:54.562Z,7.25
2023-03-22T00:38:27.278Z,6.80
2023-03-22T00:41:06.419Z,7.45
2023-03-22T00:43:33.008Z,8.48
2023-03-22T00:45:59.897Z,7.68
2023-03-22T00:48:26.519Z,8.27
2023-03-22T00:50:53.359Z,8.18
2023-03-22T00:53:20.043Z,7.07
2023-03-22T00:55:46.639Z,7.13
2023-03-22T00:58:13.496Z,6.88
2023-03-22T01:00:40.861Z,8.57
2023-03-22T01:03:08.645Z,6.53
2023-03-22T01:05:36.050Z,8.00
2023-03-22T01:08:08.415Z,6.68
2023-03-22T01:10:37.316Z,7.25
2023-03-22T01:13:04.871Z,8.00
2023-03-22T01:15:31.650Z,7.95
2023-03-22T01:17:59.449Z,7.13
2023-03-22T01:20:26.761Z,7.35
2023-03-22T01:22:53.584Z,8.60
2023-03-22T01:25:20.382Z,7.07
2023-03-22T01:27:47.272Z,7.45
2023-03-22T01:30:14.155Z,9.65
2023-03-22T01:32:41.295Z,7.97
2023-03-22T01:35:08.442Z,7.85
2023-03-22T01:37:35.307Z,7.88
2023-03-22T01:40:01.970Z,7.97
2023-03-22T01:42:29.188Z,6.68
2023-03-22T01:45:36.479Z,8.10
2023-03-22T01:48:17.329Z,8.55
2023-03-22T01:50:58.817Z,8.93
2023-03-22T01:53:27.487Z,7.53
2023-03-22T01:55:57.826Z,8.10
2023-03-22T01:58:24.828Z,8.30
2023-03-22T02:00:52.735Z,9.55
2023-03-22T02:03:30.441Z,8.45
2023-03-22T02:05:57.712Z,9.73
2023-03-22T02:08:24.564Z,8.30
2023-03-22T02:10:52.080Z,10.25
2023-03-22T02:13:31.026Z,9.73
2023-03-22T02:16:23.907Z,9.20
2023-03-22T02:19:08.919Z,8.98
2023-03-22T02:21:41.341Z,9.00
2023-03-22T02:24:45.892Z,9.80
2023-03-22T02:27:40.535Z,9.70
2023-03-22T02:30:25.910Z,9.45
2023-03-22T02:33:13.658Z,10.10
2023-03-22T02:35:52.690Z,9.05
2023-03-22T02:38:54.064Z,8.63
2023-03-22T02:41:57.342Z,9.80
2023-03-22T02:44:39.224Z,8.50
2023-03-22T02:47:38.629Z,10.05
2023-03-22T02:50:23.319Z,9.57
2023-03-22T02:53:09.811Z,10.18
2023-03-22T02:55:51.501Z,8.98
2023-03-22T02:58:23.999Z,9.30
2023-03-22T03:00:55.907Z,11.32
2023-03-22T03:03:25.591Z,9.65
2023-03-22T03:05:56.875Z,9.98
2023-03-22T03:08:25.323Z,9.68
2023-03-22T03:10:53.774Z,9.45
2023-03-22T03:13:21.114Z,9.27
2023-03-22T03:15:54.927Z,11.50
2023-03-22T03:18:32.412Z,9.95
2023-03-22T03:21:05.739Z,10.10
2023-03-22T03:23:40.567Z,12.23
2023-03-22T03:27:01.859Z,10.52
2023-03-22T03:30:07.028Z,9.52
2023-03-22T03:35:23.568Z,9.73
2023-03-22T03:38:18.753Z,9.70
2023-03-22T03:40:49.595Z,10.25
2023-03-22T03:43:17.154Z,9.63
2023-03-22T03:45:44.639Z,10.45
2023-03-22T03:48:19.031Z,11.05
2023-03-22T03:50:48.343Z,9.27
2023-03-22T03:53:15.006Z,11.18
2023-03-22T03:55:41.936Z,10.90
2023-03-22T03:58:09.616Z,10.25
2023-03-22T04:00:37.342Z,9.90
2023-03-22T04:03:06.449Z,17.85
2023-03-22T04:05:33.536Z,12.70
2023-03-22T04:08:00.241Z,10.75
2023-03-22T04:10:26.902Z,50.63
2023-03-22T04:12:53.998Z,31.27
2023-03-22T04:15:20.796Z,62.20
2023-03-22T04:17:47.668Z,11.13
2023-03-22T04:20:14.687Z,18.52
2023-03-22T04:22:42.086Z,22.25
2023-03-22T04:25:12.813Z,13.30
2023-03-22T04:27:41.199Z,13.02
2023-03-22T04:30:18.872Z,28.80
2023-03-22T04:32:49.646Z,12.70
2023-03-22T04:35:16.952Z,16.45
2023-03-22T04:37:43.759Z,13.48
2023-03-22T04:40:16.378Z,14.52
2023-03-22T04:42:44.595Z,14.50
2023-03-22T04:45:13.223Z,40.30
2023-03-22T04:47:40.770Z,9.43
2023-03-22T04:50:09.032Z,12.07
2023-03-22T04:52:35.977Z,22.70
2023-03-22T04:55:02.792Z,22.75
2023-03-22T04:57:29.438Z,13.65
2023-03-22T04:59:56.199Z,11.95
2023-03-22T05:02:22.967Z,13.50
2023-03-22T05:04:50.009Z,26.65
2023-03-22T05:07:16.734Z,46.35
2023-03-22T05:09:43.314Z,51.38
2023-03-22T05:12:10.085Z,41.65
2023-03-22T05:14:36.857Z,39.67
2023-03-22T05:17:03.865Z,26.60
2023-03-22T05:19:30.772Z,19.15
2023-03-22T05:21:58.415Z,22.77
2023-03-22T05:24:25.295Z,16.55
2023-03-22T05:26:54.034Z,28.90
2023-03-22T05:29:21.530Z,17.58
2023-03-22T05:31:48.678Z,28.05
2023-03-22T05:34:15.428Z,16.88
2023-03-22T05:36:42.308Z,14.45
2023-03-22T05:39:09.386Z,14.48
2023-03-22T05:41:36.988Z,14.32
2023-03-22T05:44:04.636Z,14.73
2023-03-22T05:46:31.255Z,20.98
2023-03-22T05:48:58.125Z,34.08
2023-03-22T05:51:27.858Z,36.13
2023-03-22T05:53:54.656Z,19.90
2023-03-22T05:56:24.567Z,28.08
2023-03-22T05:58:51.996Z,34.80
2023-03-22T06:01:20.608Z,38.05
2023-03-22T06:03:48.845Z,42.72
2023-03-22T06:06:16.189Z,33.00
2023-03-22T06:08:43.298Z,18.08
2023-03-22T06:11:10.675Z,19.65
2023-03-22T06:13:38.229Z,24.02
2023-03-22T06:16:05.480Z,65.72
2023-03-22T06:18:33.402Z,30.33
2023-03-22T06:21:00.753Z,12.65
2023-03-22T06:23:27.788Z,14.02
2023-03-22T06:25:54.996Z,11.98
2023-03-22T06:28:21.878Z,11.13
2023-03-22T06:30:48.491Z,12.85
2023-03-22T06:33:15.632Z,13.25
2023-03-22T06:35:42.531Z,12.90
2023-03-22T06:38:09.377Z,12.07
2023-03-22T06:40:36.341Z,12.10
2023-03-22T06:43:06.935Z,18.35
2023-03-22T06:45:33.762Z,19.10
2023-03-22T06:48:01.196Z,18.50
2023-03-22T06:50:29.167Z,21.38
2023-03-22T06:52:56.245Z,23.50
2023-03-22T06:55:23.601Z,30.17
2023-03-22T06:57:50.369Z,35.72
2023-03-22T07:00:17.314Z,25.15
2023-03-22T07:02:44.290Z,35.03
2023-03-22T07:05:11.285Z,23.23
2023-03-22T07:07:38.130Z,24.13
2023-03-22T07:10:05.526Z,22.58
2023-03-22T07:12:32.508Z,22.20
2023-03-22T07:14:59.396Z,23.25
2023-03-22T07:17:26.161Z,28.00
2023-03-22T07:19:53.366Z,25.77
2023-03-22T07:22:23.007Z,28.70
2023-03-22T07:24:57.062Z,32.45
2023-03-22T07:27:24.832Z,30.80
2023-03-22T07:29:51.797Z,34.60
2023-03-22T07:32:18.498Z,34.42
2023-03-22T07:34:45.560Z,34.00
2023-03-22T07:37:12.486Z,30.85
2023-03-22T07:39:39.143Z,29.88
2023-03-22T07:42:06.822Z,31.38
2023-03-22T07:44:33.864Z,28.55
2023-03-22T07:47:00.762Z,24.50
2023-03-22T07:49:27.832Z,24.58
2023-03-22T07:51:54.674Z,23.75
2023-03-22T07:54:32.828Z,31.20
2023-03-22T07:57:02.041Z,27.08
2023-03-22T07:59:29.313Z,20.23
2023-03-22T08:01:56.029Z,18.80
2023-03-22T08:04:23.378Z,15.95
2023-03-22T08:06:51.422Z,18.98
2023-03-22T08:09:18.396Z,18.15
2023-03-22T08:11:45.748Z,22.05
2023-03-22T08:14:12.485Z,18.27
2023-03-22T08:16:39.385Z,17.30
2023-03-22T08:19:06.874Z,16.25
2023-03-22T08:21:33.477Z,15.43
2023-03-22T08:24:00.160Z,14.85
2023-03-22T08:26:28.017Z,14.07
2023-03-22T08:28:54.720Z,13.88
2023-03-22T08:31:22.489Z,9.73
2023-03-22T08:33:49.907Z,7.47
2023-03-22T08:36:19.764Z,6.97
2023-03-22T08:38:46.493Z,6.63
2023-03-22T08:41:13.973Z,6.47
2023-03-22T08:43:40.718Z,7.65
2023-03-22T08:46:07.599Z,5.60
2023-03-22T08:48:38.130Z,7.78
2023-03-22T08:51:06.460Z,6.85
2023-03-22T08:53:33.146Z,6.60
2023-03-22T08:56:01.998Z,7.20
2023-03-22T08:58:28.695Z,7.10
2023-03-22T09:00:55.454Z,7.03
2023-03-22T09:03:24.357Z,6.00
2023-03-22T09:05:51.064Z,6.50
2023-03-22T09:08:19.416Z,7.00
2023-03-22T09:10:51.594Z,6.55
2023-03-22T09:13:18.859Z,7.82
2023-03-22T09:15:45.751Z,7.32
2023-03-22T09:18:13.430Z,7.68
2023-03-22T09:20:40.663Z,6.72
2023-03-22T09:23:07.415Z,7.15
2023-03-22T09:25:34.693Z,7.60
2023-03-22T09:28:01.745Z,7.57
2023-03-22T09:30:28.683Z,7.30
2023-03-22T09:32:55.712Z,7.72
2023-03-22T09:35:22.678Z,8.65
2023-03-22T09:37:49.616Z,7.03
2023-03-22T09:40:17.725Z,7.28
2023-03-22T09:42:48.478Z,7.80
2023-03-22T09:45:30.369Z,7.95
2023-03-22T09:47:59.759Z,7.32
2023-03-22T09:50:31.061Z,8.73
2023-03-22T09:53:00.323Z,6.78
2023-03-22T09:55:41.697Z,6.70
2023-03-22T09:58:27.401Z,7.72
2023-03-22T10:01:18.512Z,8.32
2023-03-22T10:04:26.784Z,9.57
2023-03-22T10:07:03.194Z,6.82
2023-03-22T10:09:39.358Z,8.07
2023-03-22T10:12:12.477Z,6.70
2023-03-22T10:14:43.974Z,7.50
2023-03-22T10:17:17.841Z,6.55
2023-03-22T10:20:00.408Z,6.57
2023-03-22T10:22:34.327Z,6.93
2023-03-22T10:25:01.745Z,6.63
2023-03-22T10:27:30.570Z,6.40
2023-03-22T10:30:18.788Z,6.38
2023-03-22T10:32:58.140Z,5.55
2023-03-22T10:35:25.932Z,6.32
2023-03-22T10:37:54.794Z,6.55
2023-03-22T10:40:27.486Z,6.28
2023-03-22T10:43:06.157Z,6.32
2023-03-22T10:45:35.701Z,6.47
2023-03-22T10:48:11.768Z,6.97
2023-03-22T10:50:42.252Z,5.78
2023-03-22T10:53:28.067Z,7.97
2023-03-22T10:55:54.963Z,5.90
2023-03-22T10:58:28.336Z,5.78
2023-03-22T11:00:59.823Z,6.43
2023-03-22T11:03:30.964Z,7.47
2023-03-22T11:05:59.881Z,5.45
2023-03-22T11:08:26.738Z,5.55
2023-03-22T11:10:55.077Z,5.82
2023-03-22T11:13:24.315Z,6.10
2023-03-22T11:16:03.836Z,7.93
2023-03-22T11:18:32.637Z,6.10
2023-03-22T11:21:05.910Z,5.43
2023-03-22T11:23:34.646Z,6.80
2023-03-22T11:26:11.026Z,5.97
2023-03-22T11:28:42.254Z,7.43
2023-03-22T11:31:15.285Z,5.57
2023-03-22T11:33:57.973Z,6.20
2023-03-22T11:36:25.928Z,5.63
2023-03-22T11:39:06.614Z,6.32
2023-03-22T11:41:37.855Z,5.50
2023-03-22T11:44:16.658Z,5.65
2023-03-22T11:46:54.866Z,5.60
2023-03-22T11:49:26.768Z,5.47
2023-03-22T11:51:55.803Z,8.23
2023-03-22T11:54:36.532Z,6.50
2023-03-22T11:57:06.622Z,7.63
2023-03-22T11:59:39.059Z,5.55
2023-03-22T12:02:22.745Z,5.60
2023-03-22T12:04:53.103Z,5.70
2023-03-22T12:07:22.060Z,6.07
2023-03-22T12:10:35.482Z,5.28
2023-03-22T12:13:10.381Z,5.88
2023-03-22T12:15:42.781Z,5.50
2023-03-22T12:18:28.816Z,5.75
2023-03-22T12:20:58.177Z,5.63
2023-03-22T12:23:31.034Z,5.70
2023-03-22T12:26:05.918Z,6.45
2023-03-22T12:28:55.707Z,7.03
2023-03-22T12:31:28.689Z,7.57
2023-03-22T12:33:58.418Z,6.72
2023-03-22T12:36:38.603Z,7.82
2023-03-22T12:39:07.152Z,5.43
2023-03-22T12:41:40.370Z,5.05
2023-03-22T12:44:24.609Z,6.63
2023-03-22T12:47:17.932Z,6.72
2023-03-22T12:50:07.253Z,7.13
2023-03-22T12:52:45.846Z,5.85
2023-03-22T12:55:24.275Z,5.82
2023-03-22T12:57:53.245Z,6.32
2023-03-22T13:00:27.392Z,8.68
2023-03-22T13:05:34.232Z,5.28
2023-03-22T13:08:05.375Z,5.47
2023-03-22T13:10:36.352Z,5.28
2023-03-22T13:13:24.441Z,5.20
2023-03-22T13:16:09.377Z,5.30
2023-03-22T13:18:36.495Z,4.90
2023-03-22T13:21:11.546Z,4.88
2023-03-22T13:23:53.477Z,5.78
2023-03-22T13:26:28.027Z,5.40
2023-03-22T13:29:00.568Z,7.88
2023-03-22T13:31:41.761Z,6.20
2023-03-22T13:34:20.919Z,7.30
2023-03-22T13:36:54.318Z,6.50
2023-03-22T13:39:25.482Z,9.43
2023-03-22T13:42:09.859Z,7.05
2023-03-22T13:44:40.067Z,6.82
2023-03-22T13:47:29.949Z,6.38
2023-03-22T13:50:20.909Z,7.13
2023-03-22T13:53:07.392Z,6.53
2023-03-22T13:55:46.413Z,7.40
2023-03-22T13:58:36.901Z,8.30
2023-03-22T14:01:29.956Z,6.82
2023-03-22T14:04:01.298Z,6.18
2023-03-22T14:06:35.105Z,6.18
2023-03-22T14:09:11.038Z,7.88
2023-03-22T14:11:57.132Z,6.70
2023-03-22T14:14:32.710Z,6.93
2023-03-22T14:17:05.794Z,12.35
2023-03-22T14:19:34.888Z,7.38
